Washington, District of Columbia
Current Conditions -  °F | °C
As of 9:52 PM on Wednesday 26 Nov 2014 (Local Time) from KDCA Reporting Station
Overcast Overcast  
Wind Chill: 33°   Ceiling: 900
Heat Index: 39°   Visibility: 10mi
Dew Point: 33°   Wind: 8mph
Humidity: 79%   Direction: 300°WNW
Pressure: 30.01"   Gusts: NA
Location:  38.89°N, 77.03°W
Report Text: KDCA 270252Z 30007KT 10SM BKN009 OVC080 04/01 A3001 RMK AO2 SLP161 60000 T00390006 53018
Loading
Personal Weather Stations






























Interactive Weather Map New forecast layout! Learn more

10-Day Weather Forecast

Advertisements
Track Severe Weather on mobile